Time;durP1;ratioP1;P1;durP2;ratioP2;P2;SDS_P1;SDS_P2;PMS_P1;PMS_P2;Temp;Humidity;BMP_temperature;BMP_pressure;BME280_temperature;BME280_humidity;BME280_pressure;Samples;Min_cycle;Max_cycle;Signal;HPM_P1;HPM_P2
2022/04/29 00:00:16;;;;;;;16.50;9.77;;;;;;;9.02;77.52;102671.31;5044763;28;20037;-70
2022/04/29 00:02:42;;;;;;;23.80;9.65;;;;;;;9.00;77.94;102674.00;5061685;28;20075;-70
2022/04/29 00:05:09;;;;;;;25.98;10.02;;;;;;;9.01;78.01;102677.44;5063341;28;20108;-69
2022/04/29 00:07:39;;;;;;;19.08;9.75;;;;;;;9.02;77.78;102671.31;5068657;28;20033;-69
2022/04/29 00:10:06;;;;;;;18.73;10.00;;;;;;;9.03;77.21;102662.66;5058459;28;20044;-70
2022/04/29 00:12:32;;;;;;;16.40;9.48;;;;;;;9.00;77.05;102663.66;5058825;28;20036;-70
2022/04/29 00:14:59;;;;;;;21.67;11.05;;;;;;;8.97;77.00;102663.88;5056944;28;20082;-70
2022/04/29 00:17:27;;;;;;;22.25;10.82;;;;;;;8.93;76.66;102660.66;5056776;28;20029;-70
2022/04/29 00:19:53;;;;;;;20.67;10.43;;;;;;;8.91;76.82;102657.34;5055993;28;20035;-70
2022/04/29 00:22:19;;;;;;;20.90;11.10;;;;;;;8.90;76.66;102654.84;5062616;28;20044;-70
2022/04/29 00:24:44;;;;;;;20.40;10.05;;;;;;;8.89;76.88;102653.16;5057449;28;20036;-70
2022/04/29 00:27:10;;;;;;;20.77;10.75;;;;;;;8.87;76.98;102647.28;5056967;28;20039;-70
2022/04/29 00:29:35;;;;;;;18.48;10.82;;;;;;;8.83;77.38;102649.22;5054797;28;20044;-70
2022/04/29 00:32:01;;;;;;;22.30;10.90;;;;;;;8.81;77.44;102639.91;5056187;28;20040;-70
2022/04/29 00:34:26;;;;;;;20.98;10.75;;;;;;;8.80;77.58;102636.50;5059992;28;20089;-70
2022/04/29 00:36:52;;;;;;;21.05;10.07;;;;;;;8.77;77.61;102628.94;5068030;28;20046;-69
2022/04/29 00:39:18;;;;;;;22.48;11.20;;;;;;;8.76;77.83;102632.47;5059544;28;20032;-69
2022/04/29 00:41:44;;;;;;;22.55;10.60;;;;;;;8.75;77.91;102628.22;5054407;28;20531;-70
2022/04/29 00:44:14;;;;;;;21.35;11.55;;;;;;;8.74;77.98;102622.22;5053322;28;20032;-70
2022/04/29 00:46:43;;;;;;;19.60;10.25;;;;;;;8.74;78.10;102627.38;5060286;28;20059;-70
2022/04/29 00:49:12;;;;;;;21.20;10.82;;;;;;;8.74;78.01;102636.91;5059523;28;20074;-70
2022/04/29 00:51:39;;;;;;;20.63;11.63;;;;;;;8.66;78.15;102623.63;5056132;28;20029;-69
2022/04/29 00:54:11;;;;;;;22.13;11.00;;;;;;;8.62;78.40;102620.41;5056076;28;20029;-69
2022/04/29 00:56:42;;;;;;;21.83;10.98;;;;;;;8.60;78.39;102632.63;5065532;28;20487;-70
2022/04/29 00:59:25;;;;;;;17.20;11.27;;;;;;;8.56;79.01;102623.41;5058072;28;20041;-70
2022/04/29 01:01:52;;;;;;;21.08;11.52;;;;;;;8.55;79.16;102624.31;5067081;28;20040;-70
2022/04/29 01:04:24;;;;;;;20.30;11.73;;;;;;;8.54;79.34;102614.91;5059096;28;20056;-70
2022/04/29 01:06:50;;;;;;;21.63;11.85;;;;;;;8.52;79.40;102612.41;5061282;28;20581;-70
2022/04/29 01:09:15;;;;;;;23.27;11.77;;;;;;;8.52;79.36;102614.19;5057912;28;20041;-70
2022/04/29 01:11:41;;;;;;;20.92;11.85;;;;;;;8.50;79.22;102603.13;5053091;28;20052;-70
2022/04/29 01:14:07;;;;;;;21.83;12.60;;;;;;;8.47;79.22;102613.63;5056930;28;20036;-70
2022/04/29 01:16:33;;;;;;;24.15;12.30;;;;;;;8.40;79.53;102610.59;5041208;28;20593;-70
2022/04/29 01:18:58;;;;;;;20.33;11.80;;;;;;;8.30;80.48;102606.94;5061198;28;20047;-69
2022/04/29 01:21:26;;;;;;;21.80;11.52;;;;;;;8.27;80.88;102607.09;5076450;28;20036;-70
2022/04/29 01:23:51;;;;;;;20.98;11.90;;;;;;;8.25;81.21;102604.66;5060389;28;20040;-70
2022/04/29 01:26:17;;;;;;;21.40;12.25;;;;;;;8.24;81.13;102599.56;5057766;28;20514;-69
2022/04/29 01:28:50;;;;;;;24.45;12.35;;;;;;;8.22;81.06;102601.41;5054941;28;20085;-70
2022/04/29 01:31:16;;;;;;;28.42;13.20;;;;;;;8.19;81.08;102594.66;5062184;28;20043;-69
2022/04/29 01:33:45;;;;;;;19.70;12.32;;;;;;;8.21;80.59;102597.16;5066172;28;20040;-70
2022/04/29 01:36:13;;;;;;;19.65;12.57;;;;;;;8.21;80.67;102597.16;5060432;28;20021;-69
2022/04/29 01:38:39;;;;;;;20.20;11.77;;;;;;;8.21;80.39;102597.97;5058446;28;20059;-69
2022/04/29 01:41:06;;;;;;;23.95;12.75;;;;;;;8.19;80.34;102595.53;5055450;28;20048;-70
2022/04/29 01:43:36;;;;;;;25.25;14.52;;;;;;;8.16;80.67;102593.13;5058455;28;20032;-70
2022/04/29 01:46:03;;;;;;;20.08;12.32;;;;;;;8.12;80.97;102603.75;5068571;28;20123;-69
2022/04/29 01:48:43;;;;;;;27.92;13.55;;;;;;;8.07;81.28;102604.03;5059467;28;20048;-69
2022/04/29 01:51:32;;;;;;;25.92;14.00;;;;;;;7.98;81.85;102602.84;5053608;28;20044;-70
2022/04/29 01:53:57;;;;;;;22.00;13.40;;;;;;;7.97;81.94;102596.03;5056271;28;20040;-70
2022/04/29 01:56:32;;;;;;;22.20;13.70;;;;;;;7.96;82.20;102591.78;5057944;28;20134;-70
2022/04/29 01:59:00;;;;;;;21.55;12.13;;;;;;;7.94;82.34;102593.63;5069567;28;20028;-70
2022/04/29 02:01:27;;;;;;;22.75;13.77;;;;;;;7.95;82.44;102589.31;5066654;28;20036;-70
2022/04/29 02:04:03;;;;;;;22.95;12.52;;;;;;;7.93;82.35;102591.97;5056075;28;20039;-70
2022/04/29 02:06:29;;;;;;;21.23;12.02;;;;;;;7.93;82.42;102588.53;5058749;28;20512;-70
2022/04/29 02:08:55;;;;;;;23.23;13.48;;;;;;;7.90;82.52;102584.41;5069989;28;20569;-70
2022/04/29 02:11:22;;;;;;;22.58;12.93;;;;;;;7.90;82.26;102586.16;5044866;28;20041;-70
2022/04/29 02:13:58;;;;;;;25.38;14.32;;;;;;;7.86;82.77;102588.09;5067937;28;20028;-70
2022/04/29 02:16:29;;;;;;;24.77;12.68;;;;;;;7.86;82.82;102587.28;5049876;28;20122;-70
2022/04/29 02:18:55;;;;;;;23.25;13.85;;;;;;;7.87;83.12;102582.00;5059863;28;20568;-70
2022/04/29 02:21:21;;;;;;;21.98;13.60;;;;;;;7.88;82.67;102585.44;5062054;28;20036;-69
2022/04/29 02:23:48;;;;;;;26.65;13.60;;;;;;;7.87;83.14;102586.34;5057613;28;20020;-69
2022/04/29 02:26:13;;;;;;;24.48;13.48;;;;;;;7.81;83.43;102582.38;5073778;28;20520;-70
2022/04/29 02:28:39;;;;;;;31.33;13.73;;;;;;;7.82;83.46;102588.38;5059737;28;20024;-70
2022/04/29 02:31:04;;;;;;;26.05;13.85;;;;;;;7.77;83.52;102581.75;5071528;28;20032;-69
2022/04/29 02:33:31;;;;;;;25.50;14.50;;;;;;;7.74;83.91;102575.94;5065719;28;20842;-70
2022/04/29 02:35:57;;;;;;;23.67;14.23;;;;;;;7.74;84.18;102584.53;5062535;28;20486;-70
2022/04/29 02:38:23;;;;;;;25.90;12.88;;;;;;;7.75;84.50;102587.94;5061658;28;20032;-69
2022/04/29 02:40:51;;;;;;;34.25;15.52;;;;;;;7.73;84.48;102579.47;5058961;28;20071;-70
2022/04/29 02:43:17;;;;;;;30.52;14.38;;;;;;;7.71;84.52;102576.16;5058574;28;20039;-69
2022/04/29 02:45:47;;;;;;;25.95;14.43;;;;;;;7.72;84.55;102578.63;5064717;28;20047;-70
2022/04/29 02:48:17;;;;;;;27.42;14.90;;;;;;;7.69;84.32;102583.97;5063810;28;20036;-69
2022/04/29 02:50:43;;;;;;;25.83;14.23;;;;;;;7.68;84.50;102579.72;5054706;28;20036;-70
2022/04/29 02:53:12;;;;;;;33.30;14.65;;;;;;;7.65;84.82;102572.19;5053939;28;20044;-69
2022/04/29 02:55:37;;;;;;;26.60;14.27;;;;;;;7.65;84.86;102577.34;5041649;28;20037;-69
2022/04/29 02:58:08;;;;;;;24.95;14.07;;;;;;;7.63;84.54;102565.44;5060005;28;20120;-69
2022/04/29 03:00:34;;;;;;;26.15;13.73;;;;;;;7.61;85.02;102573.28;5059316;28;20029;-70
2022/04/29 03:02:59;;;;;;;29.42;15.00;;;;;;;7.62;84.67;102577.53;5064644;28;20028;-70
2022/04/29 03:05:26;;;;;;;27.98;14.43;;;;;;;7.62;85.18;102572.34;5060406;28;20094;-70
2022/04/29 03:07:51;;;;;;;30.02;14.95;;;;;;;7.67;84.68;102577.25;5083992;28;21007;-70
2022/04/29 03:10:17;;;;;;;24.80;13.75;;;;;;;7.60;85.07;102566.47;5062953;28;20032;-69
2022/04/29 03:12:43;;;;;;;26.30;14.35;;;;;;;7.62;85.09;102568.97;5076533;28;20032;-70
2022/04/29 03:15:20;;;;;;;30.00;14.88;;;;;;;7.62;84.44;102576.69;5072432;28;20033;-70
2022/04/29 03:20:39;;;;;;;32.35;15.30;;;;;;;7.59;85.26;102578.56;5077209;28;20036;-70
2022/04/29 03:23:06;;;;;;;27.35;14.60;;;;;;;7.55;85.17;102571.06;5081489;28;20064;-70
2022/04/29 03:25:32;;;;;;;30.27;15.07;;;;;;;7.56;85.71;102567.56;5064191;28;20032;-70
2022/04/29 03:27:59;;;;;;;27.35;14.75;;;;;;;7.62;85.57;102568.97;5064020;28;20032;-69
2022/04/29 03:30:26;;;;;;;30.75;13.85;;;;;;;7.60;85.99;102563.88;5067373;28;20490;-69
2022/04/29 03:32:55;;;;;;;27.90;13.45;;;;;;;7.62;86.06;102558.63;5064155;28;20032;-69
2022/04/29 03:35:29;;;;;;;27.75;14.63;;;;;;;7.62;86.04;102564.63;5076628;28;20021;-70
2022/04/29 03:37:55;;;;;;;28.92;14.15;;;;;;;7.62;85.71;102563.78;5062836;28;20032;-70
2022/04/29 03:40:22;;;;;;;20.05;13.13;;;;;;;7.62;85.93;102556.03;5065258;28;20031;-69
2022/04/29 03:42:53;;;;;;;24.00;13.30;;;;;;;7.62;85.73;102564.63;5082276;28;20120;-70
2022/04/29 03:45:24;;;;;;;28.52;13.82;;;;;;;7.64;85.65;102564.53;5064619;28;20516;-70
2022/04/29 03:47:50;;;;;;;22.85;12.85;;;;;;;7.65;85.69;102567.03;5063014;28;20028;-69
2022/04/29 03:50:32;;;;;;;25.77;13.23;;;;;;;7.67;85.37;102566.94;5061950;28;20039;-70
2022/04/29 03:53:07;;;;;;;24.33;13.93;;;;;;;7.67;85.39;102561.75;5071612;28;20052;-69
2022/04/29 03:55:35;;;;;;;27.45;14.20;;;;;;;7.66;85.03;102555.75;5063029;28;20025;-70
2022/04/29 03:58:02;;;;;;;26.50;14.20;;;;;;;7.66;84.90;102558.34;5043523;28;20032;-69
2022/04/29 04:00:33;;;;;;;26.60;12.73;;;;;;;7.66;85.17;102565.25;5059482;28;20025;-71
2022/04/29 04:03:05;;;;;;;23.20;13.07;;;;;;;7.65;85.26;102563.59;5043532;28;20032;-70
2022/04/29 04:05:31;;;;;;;28.83;13.57;;;;;;;7.64;85.63;102557.59;5079722;28;20402;-70
2022/04/29 04:07:57;;;;;;;22.88;13.45;;;;;;;7.64;85.81;102554.19;5079211;28;20123;-70
2022/04/29 04:10:35;;;;;;;20.75;12.98;;;;;;;7.63;85.63;102565.44;5063798;28;20020;-70
2022/04/29 04:13:01;;;;;;;30.55;14.38;;;;;;;7.62;85.72;102569.78;5057239;28;20027;-70
2022/04/29 04:16:05;;;;;;;29.00;13.75;;;;;;;7.60;86.08;102567.28;4974530;28;20034;-70
2022/04/29 04:18:37;;;;;;;27.27;14.00;;;;;;;7.60;85.93;102563.88;4963386;28;20034;-70
2022/04/29 04:21:03;;;;;;;24.65;13.55;;;;;;;7.60;86.14;102566.47;5007796;28;20123;-70
2022/04/29 04:23:29;;;;;;;24.20;13.23;;;;;;;7.61;86.56;102570.72;5062417;28;20493;-70
2022/04/29 04:25:56;;;;;;;30.23;14.60;;;;;;;7.63;86.21;102568.00;5060816;28;20041;-69
2022/04/29 04:28:23;;;;;;;23.65;13.70;;;;;;;7.62;85.82;102567.19;5061463;28;20115;-69
2022/04/29 04:30:58;;;;;;;24.65;13.68;;;;;;;7.63;86.04;102571.44;5060499;28;20028;-69
2022/04/29 04:33:33;;;;;;;26.00;13.75;;;;;;;7.62;86.18;102572.34;5058301;28;20079;-70
2022/04/29 04:36:00;;;;;;;21.25;13.07;;;;;;;7.59;86.33;102572.53;5060905;28;20025;-70
2022/04/29 04:38:26;;;;;;;43.33;15.18;;;;;;;7.52;86.64;102569.50;5062787;28;20040;-70
2022/04/29 04:41:14;;;;;;;25.63;14.15;;;;;;;7.50;86.38;102570.53;5067174;28;20047;-69
2022/04/29 04:43:41;;;;;;;27.70;12.90;;;;;;;7.44;86.63;102570.88;5059369;28;20040;-69
2022/04/29 04:46:12;;;;;;;30.05;13.07;;;;;;;7.45;86.99;102572.56;5061653;28;20118;-69
2022/04/29 04:48:42;;;;;;;28.60;13.63;;;;;;;7.48;86.82;102574.94;5063400;28;20988;-70
2022/04/29 04:51:20;;;;;;;28.25;13.07;;;;;;;7.45;86.51;102564.81;5061108;28;20020;-70
2022/04/29 04:53:50;;;;;;;25.25;14.75;;;;;;;7.45;86.46;102560.47;5076905;28;20036;-70
2022/04/29 04:56:16;;;;;;;25.17;13.27;;;;;;;7.48;86.26;102560.28;5066610;28;20040;-70
2022/04/29 04:58:42;;;;;;;29.05;14.85;;;;;;;7.49;86.18;102555.94;5060212;28;20029;-70
2022/04/29 05:01:08;;;;;;;25.95;13.75;;;;;;;7.51;85.87;102551.53;5061404;28;20028;-70
2022/04/29 05:03:52;;;;;;;30.27;13.77;;;;;;;7.49;86.32;102545.63;5067753;28;20043;-70
2022/04/29 05:06:40;;;;;;;24.25;13.82;;;;;;;7.53;86.46;102547.09;5060314;28;20037;-70
2022/04/29 05:09:07;;;;;;;28.80;14.52;;;;;;;7.55;85.76;102546.09;5047000;28;20717;-69
2022/04/29 05:11:35;;;;;;;25.60;13.18;;;;;;;7.54;86.03;102547.00;5073701;28;20117;-69
2022/04/29 05:14:02;;;;;;;28.77;13.88;;;;;;;7.57;85.99;102548.56;5073063;28;20064;-69
2022/04/29 05:16:33;;;;;;;27.42;13.15;;;;;;;7.59;85.64;102541.56;5060976;28;20040;-70
2022/04/29 05:19:17;;;;;;;29.05;13.60;;;;;;;7.66;85.79;102544.59;5060520;28;20087;-70
2022/04/29 05:21:42;;;;;;;33.65;14.02;;;;;;;7.70;85.76;102543.47;5060984;28;20498;-70
2022/04/29 05:24:08;;;;;;;20.17;12.48;;;;;;;7.74;85.88;102542.38;5041396;28;20115;-69
2022/04/29 05:26:52;;;;;;;27.33;13.32;;;;;;;7.79;85.50;102542.91;5057291;28;20536;-70
2022/04/29 05:29:36;;;;;;;23.02;12.10;;;;;;;7.84;85.70;102540.88;5058896;28;20517;-70
2022/04/29 05:32:22;;;;;;;25.05;12.35;;;;;;;7.87;85.04;102553.59;5049358;28;20056;-69
2022/04/29 05:35:08;;;;;;;26.15;12.05;;;;;;;7.92;84.88;102548.97;5065364;28;20043;-70
2022/04/29 05:38:07;;;;;;;26.90;13.02;;;;;;;8.05;83.93;102554.22;5038748;28;20068;-70
2022/04/29 05:43:19;;;;;;;29.40;12.77;;;;;;;8.07;84.22;102556.69;5058935;28;20409;-69
2022/04/29 05:45:45;;;;;;;32.63;12.23;;;;;;;8.07;84.17;102559.28;5078669;28;20058;-70
2022/04/29 05:48:11;;;;;;;30.38;14.52;;;;;;;8.11;84.38;102553.00;5042647;28;20033;-70
2022/04/29 05:50:37;;;;;;;28.42;14.13;;;;;;;8.08;84.29;102555.75;5056835;28;20078;-70
2022/04/29 05:53:04;;;;;;;30.20;12.38;;;;;;;8.10;84.64;102551.31;5073865;23;20177;-67
2022/04/29 05:55:30;;;;;;;25.45;13.73;;;;;;;8.17;84.82;102566.38;5041809;28;20041;-67
2022/04/29 05:57:58;;;;;;;33.17;12.50;;;;;;;8.18;84.90;102568.00;5077332;28;20612;-67
2022/04/29 06:00:24;;;;;;;25.13;13.85;;;;;;;8.28;84.06;102573.41;5057794;28;20162;-67
2022/04/29 06:03:03;;;;;;;26.90;12.40;;;;;;;8.27;84.39;102576.09;5076667;28;20117;-67
2022/04/29 06:05:30;;;;;;;24.38;12.65;;;;;;;8.33;83.56;102568.78;5055429;28;20033;-68
2022/04/29 06:07:56;;;;;;;33.90;12.23;;;;;;;8.36;82.29;102565.16;5062418;28;20059;-66
2022/04/29 06:10:28;;;;;;;26.08;11.73;;;;;;;8.34;83.14;102554.94;5071797;28;20078;-67
2022/04/29 06:12:54;;;;;;;28.95;12.65;;;;;;;8.32;82.13;102568.88;5060570;28;20077;-67
2022/04/29 06:15:29;;;;;;;26.88;11.98;;;;;;;8.28;82.37;102564.84;5075824;28;20100;-67
2022/04/29 06:18:17;;;;;;;26.25;11.35;;;;;;;8.31;82.72;102559.50;5058872;28;20032;-68
2022/04/29 06:20:53;;;;;;;25.27;12.10;;;;;;;8.35;82.60;102563.53;5061050;28;20127;-67
2022/04/29 06:23:24;;;;;;;;;;;;;;;8.45;82.37;102571.53;5056592;28;20036;-68
2022/04/29 06:25:51;;;;;;;26.20;12.18;;;;;;;8.55;82.12;102564.84;5056379;28;19916;-68
2022/04/29 06:28:17;;;;;;;38.95;13.77;;;;;;;8.66;82.04;102564.97;5039879;28;20033;-67
2022/04/29 06:30:45;;;;;;;29.05;13.02;;;;;;;8.79;81.67;102565.00;5059315;28;20682;-67
2022/04/29 06:33:34;;;;;;;29.50;12.93;;;;;;;8.81;81.02;102577.84;5059849;28;20043;-68
2022/04/29 06:36:01;;;;;;;29.77;13.02;;;;;;;8.92;80.64;102577.97;5080346;28;20375;-68
2022/04/29 06:38:28;;;;;;;26.10;12.15;;;;;;;8.92;80.49;102565.84;5063101;28;20116;-67
2022/04/29 06:40:57;;;;;;;22.92;11.48;;;;;;;9.03;79.31;102565.13;5059697;28;20167;-67
2022/04/29 06:43:30;;;;;;;29.42;13.05;;;;;;;9.01;79.28;102571.34;5060422;28;20465;-68
2022/04/29 06:46:17;;;;;;;64.80;26.10;;;;;;;9.11;79.95;102572.38;5059192;28;20129;-67
2022/04/29 06:49:01;;;;;;;40.17;17.55;;;;;;;9.17;79.88;102577.13;5063268;28;20143;-68
2022/04/29 06:51:50;;;;;;;27.67;12.00;;;;;;;9.27;79.37;102577.38;5061042;28;20044;-67
2022/04/29 06:54:21;;;;;;;29.40;12.43;;;;;;;9.31;79.17;102576.22;5066784;28;20039;-67
2022/04/29 06:56:52;;;;;;;25.75;12.57;;;;;;;9.42;79.10;102576.31;5083328;28;20490;-68
2022/04/29 06:59:19;;;;;;;30.00;14.85;;;;;;;9.57;78.35;102573.59;5066199;28;20032;-67
2022/04/29 07:01:45;;;;;;;39.45;14.63;;;;;;;9.38;76.50;102576.63;5061152;28;21514;-68
2022/04/29 07:04:11;;;;;;;32.03;13.90;;;;;;;9.37;75.70;102573.19;5065858;28;20028;-67
2022/04/29 07:06:37;;;;;;;29.20;13.75;;;;;;;9.41;76.53;102576.41;5063608;28;20082;-67
2022/04/29 07:09:04;;;;;;;35.78;13.95;;;;;;;9.51;76.34;102580.88;5080094;28;20035;-67
2022/04/29 07:11:47;;;;;;;32.72;13.32;;;;;;;9.58;76.77;102580.44;5066234;28;20117;-67
2022/04/29 07:14:22;;;;;;;34.75;13.25;;;;;;;9.56;75.61;102565.00;5064807;28;20086;-68
2022/04/29 07:17:14;;;;;;;24.67;12.93;;;;;;;9.54;75.59;102577.22;5061030;28;20041;-68
2022/04/29 07:19:45;;;;;;;26.85;12.63;;;;;;;9.61;76.21;102582.81;5058942;28;20599;-68
2022/04/29 07:22:11;;;;;;;31.58;13.38;;;;;;;9.66;76.19;102580.72;5063387;28;20111;-68
2022/04/29 07:24:44;;;;;;;32.45;14.93;;;;;;;9.68;76.96;102586.63;5057865;28;20457;-68
2022/04/29 07:27:09;;;;;;;36.50;14.63;;;;;;;9.84;76.99;102576.84;5044152;28;20056;-68
2022/04/29 07:29:35;;;;;;;30.73;13.80;;;;;;;9.83;76.78;102574.38;5055833;28;20040;-67
2022/04/29 07:32:09;;;;;;;28.35;14.38;;;;;;;9.85;76.79;102575.06;5074136;28;20336;-68
2022/04/29 07:43:54;;;;;;;27.45;13.30;;;;;;;10.15;76.56;102564.28;5072403;28;20031;-68
2022/04/29 07:46:21;;;;;;;30.75;14.15;;;;;;;10.22;76.60;102564.69;5060857;28;20584;-68
2022/04/29 07:48:59;;;;;;;38.85;15.57;;;;;;;10.11;76.20;102570.66;5063722;28;20152;-68
2022/04/29 07:51:24;;;;;;;31.10;13.68;;;;;;;10.15;75.81;102566.88;5062813;28;20028;-68
2022/04/29 07:53:50;;;;;;;33.85;14.15;;;;;;;10.32;75.09;102565.69;5077038;28;20102;-68
2022/04/29 07:56:16;;;;;;;39.75;14.52;;;;;;;10.38;75.17;102570.47;5060468;28;20036;-67
2022/04/29 07:58:42;;;;;;;30.52;12.80;;;;;;;10.40;74.55;102567.78;5044172;28;20032;-67
2022/04/29 08:01:09;;;;;;;25.52;13.10;;;;;;;10.51;74.90;102567.81;5071926;28;20381;-68
2022/04/29 08:03:38;;;;;;;40.10;16.73;;;;;;;10.52;73.57;102567.66;5064507;28;20043;-68
2022/04/29 08:06:07;;;;;;;28.45;13.07;;;;;;;10.54;73.28;102569.34;5077274;28;20150;-68
2022/04/29 08:08:34;;;;;;;31.20;14.18;;;;;;;10.64;72.45;102568.56;5057811;28;20040;-67
2022/04/29 08:11:00;;;;;;;39.35;15.52;;;;;;;10.75;72.73;102577.31;5066098;28;20474;-68
2022/04/29 08:13:28;;;;;;;32.63;13.85;;;;;;;10.80;72.77;102580.41;5057899;28;20028;-68
2022/04/29 08:16:13;;;;;;;32.65;13.98;;;;;;;10.87;71.96;102585.00;5058903;28;20072;-68
2022/04/29 08:19:04;;;;;;;35.35;14.63;;;;;;;10.82;71.30;102576.72;5044787;28;20067;-68
2022/04/29 08:21:52;;;;;;;32.55;14.00;;;;;;;10.91;71.67;102576.03;5051242;28;20040;-68
2022/04/29 08:24:18;;;;;;;40.38;14.10;;;;;;;11.06;71.88;102581.84;5060017;28;20036;-68
2022/04/29 08:26:43;;;;;;;37.13;14.25;;;;;;;11.07;70.78;102575.72;5046965;28;20033;-68
2022/04/29 08:29:10;;;;;;;26.75;13.30;;;;;;;11.09;71.16;102585.97;5060479;28;20151;-68
2022/04/29 08:31:39;;;;;;;30.08;14.80;;;;;;;11.16;70.16;102581.16;5062798;28;20164;-68
2022/04/29 08:34:04;;;;;;;34.53;14.02;;;;;;;11.10;70.07;102583.28;5061323;28;20024;-67
2022/04/29 08:36:31;;;;;;;33.47;12.77;;;;;;;11.07;70.55;102577.47;5059947;28;20020;-67
2022/04/29 08:39:00;;;;;;;31.33;12.35;;;;;;;11.02;70.78;102574.41;5057874;28;20035;-68
2022/04/29 08:41:26;;;;;;;32.80;13.48;;;;;;;11.11;70.00;102573.72;5055631;28;20036;-67
2022/04/29 08:43:54;;;;;;;28.15;14.05;;;;;;;11.35;70.11;102568.41;5045338;28;20114;-68
2022/04/29 08:46:35;;;;;;;29.42;13.32;;;;;;;11.48;69.60;102576.09;5054225;28;20055;-67
2022/04/29 08:49:19;;;;;;;28.85;12.32;;;;;;;11.74;68.37;102571.47;5062270;28;20070;-68
2022/04/29 08:51:45;;;;;;;35.13;12.73;;;;;;;11.75;67.67;102580.91;5074153;28;20029;-67
2022/04/29 08:58:36;;;;;;;32.88;13.15;;;;;;;11.72;68.88;102570.78;5047805;28;20055;-68
2022/04/29 08:59:48;;;;;;;26.63;13.40;;;;;;;11.89;68.29;102574.63;5057365;28;20586;-67
2022/04/29 09:02:13;;;;;;;30.70;13.07;;;;;;;12.14;68.24;102583.94;5060007;28;20037;-68
2022/04/29 09:04:40;;;;;;;25.58;11.63;;;;;;;12.14;66.91;102581.34;5063267;28;20032;-68
2022/04/29 09:07:05;;;;;;;33.88;12.65;;;;;;;12.23;68.26;102572.78;5062799;28;20077;-67
2022/04/29 09:09:31;;;;;;;29.73;12.55;;;;;;;12.26;67.20;102577.75;5073160;28;20032;-67
2022/04/29 09:12:19;;;;;;;30.52;13.50;;;;;;;12.23;66.46;102571.97;5063551;28;20534;-68
2022/04/29 09:14:44;;;;;;;31.70;13.35;;;;;;;12.22;66.19;102578.13;5075698;28;20043;-68
2022/04/29 09:17:28;;;;;;;31.77;13.15;;;;;;;12.31;66.15;102581.75;5059250;28;20044;-68
2022/04/29 09:19:53;;;;;;;35.17;14.48;;;;;;;12.32;66.73;102570.38;5065680;28;20032;-67
2022/04/29 09:22:19;;;;;;;27.95;13.00;;;;;;;12.53;66.25;102576.47;5061586;28;20048;-68
2022/04/29 09:25:03;;;;;;;39.47;15.07;;;;;;;12.88;66.41;102580.50;5059430;28;20048;-68
2022/04/29 09:28:02;;;;;;;26.38;11.82;;;;;;;13.22;65.42;102583.75;5062313;28;20131;-68
2022/04/29 09:31:03;;;;;;;40.25;12.82;;;;;;;13.40;64.64;102577.94;5055831;28;20033;-68
2022/04/29 09:34:01;;;;;;;30.85;11.93;;;;;;;13.39;64.15;102577.13;5043097;28;20040;-68
2022/04/29 09:36:48;;;;;;;34.95;12.68;;;;;;;13.31;64.92;102570.91;5057336;28;20590;-68
2022/04/29 09:39:32;;;;;;;28.42;10.90;;;;;;;13.55;63.87;102578.41;5059386;28;20033;-68
2022/04/29 09:42:00;;;;;;;29.80;12.10;;;;;;;13.72;64.08;102580.38;5058780;28;20064;-68
2022/04/29 09:44:45;;;;;;;24.98;11.05;;;;;;;13.80;63.61;102579.69;5062346;28;20039;-68
2022/04/29 09:47:20;;;;;;;31.27;12.32;;;;;;;13.63;64.94;102571.56;5057518;28;20037;-67
2022/04/29 09:49:58;;;;;;;28.70;12.32;;;;;;;13.53;64.33;102573.31;5066161;28;20422;-67
2022/04/29 09:52:26;;;;;;;30.30;10.93;;;;;;;13.74;63.36;102570.63;5058327;28;20048;-68
2022/04/29 09:54:53;;;;;;;30.35;12.05;;;;;;;13.94;62.06;102581.94;5056777;28;20188;-68
2022/04/29 09:57:27;;;;;;;26.52;11.85;;;;;;;14.31;62.15;102570.81;5061452;28;20032;-68
2022/04/29 09:59:57;;;;;;;25.88;11.52;;;;;;;14.24;60.28;102569.75;5074392;28;21031;-68
2022/04/29 10:02:26;;;;;;;24.20;12.65;;;;;;;14.20;60.28;102570.97;5059245;28;20036;-68
2022/04/29 10:04:56;;;;;;;28.42;12.50;;;;;;;14.10;60.43;102570.97;5069360;28;20595;-68
2022/04/29 10:07:24;;;;;;;29.17;11.10;;;;;;;14.05;61.00;102565.31;5062164;28;20058;-68
2022/04/29 10:09:55;;;;;;;27.10;11.75;;;;;;;14.13;62.09;102568.09;5058738;28;20031;-68
2022/04/29 10:12:24;;;;;;;27.92;11.82;;;;;;;14.23;61.36;102568.09;5060866;28;20036;-68
2022/04/29 10:15:16;;;;;;;32.13;11.63;;;;;;;14.22;60.76;102563.81;5059984;28;20042;-68
2022/04/29 10:21:16;;;;;;;36.35;13.27;;;;;;;14.26;61.59;102554.78;5061180;28;20037;-68
2022/04/29 10:23:50;;;;;;;27.38;12.85;;;;;;;14.30;61.67;102556.16;5053088;28;20028;-68
2022/04/29 10:26:21;;;;;;;26.67;13.00;;;;;;;14.27;61.19;102558.19;5055271;28;20068;-68
2022/04/29 10:28:47;;;;;;;28.73;10.85;;;;;;;14.19;60.44;102556.28;5058032;28;20044;-68
2022/04/29 10:31:20;;;;;;;29.48;11.77;;;;;;;14.17;59.90;102553.81;5056988;28;20079;-67
2022/04/29 10:33:46;;;;;;;22.02;11.13;;;;;;;14.23;61.50;102549.00;5057624;28;20115;-68
2022/04/29 10:36:17;;;;;;;23.85;11.05;;;;;;;14.40;61.12;102553.53;5059269;28;20037;-68
2022/04/29 10:38:46;;;;;;;28.38;13.20;;;;;;;14.54;61.70;102547.03;5060156;28;20586;-68
2022/04/29 10:41:18;;;;;;;32.42;13.27;;;;;;;14.88;60.87;102554.44;5058414;28;20489;-67
2022/04/29 10:43:46;;;;;;;34.65;12.60;;;;;;;15.12;59.46;102549.53;5058731;28;20064;-68
2022/04/29 10:46:29;;;;;;;24.60;11.82;;;;;;;15.03;58.19;102553.03;5063197;28;20133;-68
2022/04/29 10:49:30;;;;;;;32.70;12.32;;;;;;;15.38;59.19;102535.81;5071528;28;20041;-68
2022/04/29 10:52:28;;;;;;;21.30;11.88;;;;;;;15.50;58.30;102546.88;5044289;28;20712;-68
2022/04/29 10:55:23;;;;;;;24.40;12.02;;;;;;;15.55;56.50;102545.47;5074398;28;20037;-68
2022/04/29 10:57:51;;;;;;;25.88;11.05;;;;;;;15.52;57.02;102531.88;5073173;28;20115;-68
2022/04/29 11:00:23;;;;;;;22.90;11.10;;;;;;;15.55;57.29;102534.19;5055164;28;20105;-68
2022/04/29 11:02:49;;;;;;;21.17;11.07;;;;;;;15.44;56.82;102534.41;5058131;28;20028;-68
2022/04/29 11:05:35;;;;;;;24.80;10.60;;;;;;;15.75;57.87;102529.72;5056903;28;20036;-68
2022/04/29 11:08:07;;;;;;;25.90;10.90;;;;;;;15.67;55.31;102529.59;5056707;28;20048;-67
2022/04/29 11:10:53;;;;;;;24.80;10.37;;;;;;;15.60;56.65;102524.13;5070053;28;20082;-68
2022/04/29 11:13:22;;;;;;;26.83;12.15;;;;;;;15.52;55.72;102517.03;5070217;28;20044;-67
2022/04/29 11:16:14;;;;;;;24.60;10.63;;;;;;;15.64;55.02;102520.25;5057177;28;20415;-68
2022/04/29 11:19:28;;;;;;;29.13;10.88;;;;;;;15.68;56.54;102518.97;5056497;28;21752;-68
2022/04/29 11:24:47;;;;;;;24.60;9.95;;;;;;;15.42;56.65;102516.25;5073555;28;20028;-68
2022/04/29 11:27:37;;;;;;;17.10;9.18;;;;;;;15.69;55.29;102510.19;5062138;28;20055;-68
2022/04/29 11:30:06;;;;;;;23.90;9.13;;;;;;;15.95;55.09;102517.31;5075258;28;20032;-68
2022/04/29 11:32:43;;;;;;;17.05;9.30;;;;;;;15.87;53.27;102509.38;5061776;28;20029;-68
2022/04/29 11:35:08;;;;;;;29.60;9.32;;;;;;;15.92;54.81;102512.38;5061594;28;20074;-68
2022/04/29 11:37:35;;;;;;;15.07;8.35;;;;;;;16.07;54.75;102503.03;5059648;28;20036;-68
2022/04/29 11:40:06;;;;;;;21.45;9.10;;;;;;;16.12;54.40;102502.56;5063140;28;20032;-68
2022/04/29 11:42:33;;;;;;;14.98;8.73;;;;;;;16.10;54.87;102505.31;5065611;28;20047;-68
2022/04/29 11:45:10;;;;;;;20.02;8.00;;;;;;;16.07;54.43;102505.66;5046827;28;20432;-68
2022/04/29 11:47:36;;;;;;;18.45;8.45;;;;;;;16.06;53.29;102506.59;5061723;28;20040;-68
2022/04/29 11:50:09;;;;;;;20.38;8.93;;;;;;;16.07;53.42;102491.75;5062444;28;20043;-67
2022/04/29 11:52:36;;;;;;;18.77;8.70;;;;;;;16.07;53.03;102489.94;5026428;28;1117981;-67
2022/04/29 11:55:06;;;;;;;20.63;8.38;;;;;;;16.17;54.25;102494.28;5006110;23;20036;-77
2022/04/29 11:57:49;;;;;;;25.35;9.60;;;;;;;15.96;53.63;102488.38;4973633;28;20512;-77